EDT,Max TemperatureF,Mean TemperatureF,Min TemperatureF,Max Dew PointF,MeanDew PointF,Min DewpointF,Max Humidity, Mean Humidity, Min Humidity, Max Sea Level PressureIn, Mean Sea Level PressureIn, Min Sea Level PressureIn, Max VisibilityMiles, Mean VisibilityMiles, Min VisibilityMiles, Max Wind SpeedMPH, Mean Wind SpeedMPH, Max Gust SpeedMPH,PrecipitationIn, CloudCover, Events, WindDirDegrees
2013-6-1,76,68,60,62,57,48,91,68,37,30.22,30.17,30.13,10,10,5,9,2,17,0.00,3,,147
2013-6-2,72,66,60,62,59,57,94,83,63,30.14,30.06,30.01,10,9,2,14,3,23,0.16,6,Rain,163
2013-6-3,75,67,59,60,55,52,94,71,46,30.10,30.01,29.97,10,9,0,16,4,24,0.00,5,Fog-Rain,296
2013-6-4,68,62,56,57,54,52,90,77,60,30.20,30.14,30.08,10,10,5,8,2,,0.00,5,,126
2013-6-5,66,61,56,61,58,54,94,90,82,30.21,30.16,30.10,10,3,0,7,1,,0.01,8,Fog-Rain,136
2013-6-6,70,64,59,65,61,57,94,91,78,30.11,29.97,29.90,10,6,0,7,2,,0.06,8,Fog-Rain,143
2013-6-7,70,66,61,63,58,52,94,81,64,29.95,29.84,29.78,10,7,0,16,4,22,0.05,6,Rain,324
2013-6-8,75,65,55,62,55,49,94,71,40,30.20,30.06,29.93,10,9,2,14,2,17,0.30,5,Rain,281
2013-6-9,75,68,60,65,61,58,94,87,60,30.26,30.21,30.17,10,4,0,7,1,,0.28,7,Fog-Rain,137
2013-6-10,74,67,60,63,58,43,94,74,33,30.16,30.05,29.98,10,8,0,14,5,24,1.00,6,Rain,186
2013-6-11,73,66,60,57,55,52,87,66,52,30.11,30.07,30.01,10,10,5,17,8,28,0.16,5,Rain,285
2013-6-12,83,74,66,64,60,56,70,60,43,30.13,30.09,30.04,10,10,10,28,12,36,0.00,1,,287
2013-6-13,79,70,60,62,58,49,76,63,48,30.04,29.91,29.81,10,10,5,25,14,44,0.08,4,Rain,280
2013-6-14,69,63,57,50,47,44,73,57,40,30.16,30.02,29.90,10,10,10,17,12,28,0.00,2,,323
2013-6-15,75,64,52,54,49,44,88,58,34,30.24,30.19,30.14,10,10,10,12,2,16,0.00,1,,285
2013-6-16,78,68,58,61,55,50,83,62,42,30.22,30.18,30.14,10,10,10,14,4,21,0.00,3,,260
2013-6-17,75,68,61,65,60,54,93,77,47,30.16,30.11,30.06,10,8,0,20,2,26,0.77,6,Fog-Rain,270
2013-6-18,70,66,61,65,61,56,94,88,75,30.07,29.99,29.94,10,6,0,10,2,,0.06,7,Fog-Rain,328
2013-6-19,72,64,57,61,57,54,94,79,58,30.24,30.13,30.04,10,9,1,12,2,18,0.30,3,Rain,39
2013-6-20,71,64,57,62,59,56,94,83,67,30.35,30.30,30.23,10,6,0,9,1,16,0.00,6,Fog,129
2013-6-21,75,66,58,59,58,56,94,76,52,30.38,30.34,30.31,10,7,0,8,1,,0.00,5,Fog,133
2013-6-22,76,64,53,58,53,38,94,68,25,30.35,30.31,30.25,10,7,0,7,1,,0.00,3,Fog,89
2013-6-23,76,67,58,62,58,53,93,74,45,30.33,30.29,30.25,10,9,0,8,0,,0.01,3,Fog-Rain,288
2013-6-24,75,67,59,65,61,57,93,78,58,30.33,30.28,30.23,10,9,0,8,1,,0.02,4,Fog-Rain,181
2013-6-25,80,70,61,64,59,53,91,69,40,30.26,30.21,30.15,10,10,2,15,3,23,0.00,1,Rain,279
2013-6-26,80,71,62,63,61,58,92,70,48,30.17,30.10,30.05,10,9,1,16,5,25,0.00,2,Rain,280
2013-6-27,75,68,62,63,60,54,93,73,60,30.06,29.95,29.89,10,9,0,24,7,34,0.07,5,Fog-Rain,272
2013-6-28,78,72,65,62,59,54,74,64,48,29.91,29.83,29.76,10,10,5,20,12,33,0.00,4,Rain,277
2013-6-29,78,70,63,58,52,42,79,55,27,29.84,29.79,29.75,10,10,10,16,6,23,0.00,3,,270
2013-6-30,75,66,57,61,57,50,93,75,52,29.96,29.88,29.81,10,9,2,8,2,18,0.16,6,Rain,131